Time;durP1;ratioP1;P1;durP2;ratioP2;P2;SDS_P1;SDS_P2;PMS_P1;PMS_P2;Temp;Humidity;BMP_temperature;BMP_pressure;BME280_temperature;BME280_humidity;BME280_pressure;Samples;Min_cycle;Max_cycle;Signal;HPM_P1;HPM_P2
2022/12/02 00:00:06;;;;;;;49.28;20.55;;;;;;;;;;5013286;28;20061;-58
2022/12/02 00:02:33;;;;;;;59.00;23.73;;;;;;;;;;5031609;28;20167;-58
2022/12/02 00:05:03;;;;;;;54.50;21.83;;;;;;;;;;5032178;28;20570;-58
2022/12/02 00:07:32;;;;;;;50.00;21.02;;;;;;;;;;5031007;28;20073;-58
2022/12/02 00:09:58;;;;;;;51.65;21.92;;;;;;;;;;5031190;28;20559;-59
2022/12/02 00:12:25;;;;;;;54.45;23.08;;;;;;;;;;5023770;28;20072;-58
2022/12/02 00:14:56;;;;;;;53.17;22.05;;;;;;;;;;5030846;28;20502;-58
2022/12/02 00:17:22;;;;;;;53.78;22.67;;;;;;;;;;5000266;28;20077;-58
2022/12/02 00:19:49;;;;;;;52.47;21.48;;;;;;;;;;5023299;28;20077;-57
2022/12/02 00:22:16;;;;;;;47.50;19.58;;;;;;;;;;5031049;28;20470;-58
2022/12/02 00:24:42;;;;;;;57.70;22.50;;;;;;;;;;5027525;28;20050;-58
2022/12/02 00:27:08;;;;;;;59.45;22.83;;;;;;;;;;5006301;28;20049;-58
2022/12/02 00:29:34;;;;;;;51.67;21.48;;;;;;;;;;5019100;28;20462;-59
2022/12/02 00:32:00;;;;;;;55.15;22.63;;;;;;;;;;5027517;28;20092;-58
2022/12/02 00:34:26;;;;;;;51.20;22.25;;;;;;;;;;5031410;28;20052;-58
2022/12/02 00:36:52;;;;;;;54.90;23.50;;;;;;;;;;5031409;28;20716;-58
2022/12/02 00:39:18;;;;;;;58.03;23.25;;;;;;;;;;5013998;28;20045;-58
2022/12/02 00:41:44;;;;;;;62.28;22.75;;;;;;;;;;5030943;28;20407;-58
2022/12/02 00:46:54;;;;;;;57.60;22.83;;;;;;;;;;5010869;28;20045;-58
2022/12/02 00:49:20;;;;;;;55.67;22.85;;;;;;;;;;5035181;28;20048;-58
2022/12/02 00:51:46;;;;;;;54.75;23.27;;;;;;;;;;5033791;28;20455;-58
2022/12/02 00:54:13;;;;;;;58.97;22.85;;;;;;;;;;5035489;28;20110;-58
2022/12/02 00:56:39;;;;;;;56.47;21.70;;;;;;;;;;5034581;28;20417;-60
2022/12/02 00:59:05;;;;;;;61.50;23.23;;;;;;;;;;5034552;28;20041;-58
2022/12/02 01:01:32;;;;;;;61.63;22.70;;;;;;;;;;5029700;28;20057;-57
2022/12/02 01:03:58;;;;;;;54.63;22.40;;;;;;;;;;5026831;28;20120;-58
2022/12/02 01:06:24;;;;;;;56.58;23.38;;;;;;;;;;5027306;28;20049;-58
2022/12/02 01:08:50;;;;;;;51.78;21.30;;;;;;;;;;5035266;28;20394;-57
2022/12/02 01:11:17;;;;;;;57.65;24.23;;;;;;;;;;5029830;28;20124;-58
2022/12/02 01:13:43;;;;;;;62.75;21.80;;;;;;;;;;5035037;28;20056;-57
2022/12/02 01:16:09;;;;;;;56.42;23.23;;;;;;;;;;5035421;28;20482;-57
2022/12/02 01:18:35;;;;;;;53.95;20.15;;;;;;;;;;5033110;28;20041;-57
2022/12/02 01:21:01;;;;;;;66.88;26.50;;;;;;;;;;5004379;28;20050;-58
2022/12/02 01:23:27;;;;;;;56.58;23.70;;;;;;;;;;5002211;28;20041;-57
2022/12/02 01:25:53;;;;;;;65.13;26.33;;;;;;;;;;5034045;28;20499;-57
2022/12/02 01:28:19;;;;;;;56.42;21.98;;;;;;;;;;5035254;28;20049;-58
2022/12/02 01:30:46;;;;;;;60.00;23.05;;;;;;;;;;5034173;28;20485;-58
2022/12/02 01:33:12;;;;;;;57.90;23.90;;;;;;;;;;5034635;28;20053;-58
2022/12/02 01:35:38;;;;;;;57.90;23.10;;;;;;;;;;5016377;28;20053;-58
2022/12/02 01:38:04;;;;;;;61.22;23.08;;;;;;;;;;5035339;28;20136;-58
2022/12/02 01:40:31;;;;;;;52.80;22.70;;;;;;;;;;5025539;28;20084;-58
2022/12/02 01:42:57;;;;;;;54.58;22.30;;;;;;;;;;5034234;28;20057;-58
2022/12/02 01:45:23;;;;;;;54.70;22.75;;;;;;;;;;5032289;28;20056;-57
2022/12/02 01:47:50;;;;;;;61.33;25.30;;;;;;;;;;5021419;28;20042;-58
2022/12/02 01:50:17;;;;;;;58.70;24.33;;;;;;;;;;5033416;28;20034;-57
2022/12/02 01:52:43;;;;;;;54.20;21.20;;;;;;;;;;5034649;28;20041;-58
2022/12/02 01:55:12;;;;;;;57.40;23.25;;;;;;;;;;5018252;28;20054;-58
2022/12/02 01:57:38;;;;;;;61.88;24.20;;;;;;;;;;5033981;28;20497;-59
2022/12/02 02:00:05;;;;;;;62.97;23.25;;;;;;;;;;5015276;28;20421;-58
2022/12/02 02:02:36;;;;;;;57.92;23.90;;;;;;;;;;5029175;28;20472;-58
2022/12/02 02:05:04;;;;;;;64.95;25.85;;;;;;;;;;5021153;28;20888;-58
2022/12/02 02:07:30;;;;;;;65.88;23.98;;;;;;;;;;5032469;28;20049;-58
2022/12/02 02:09:57;;;;;;;63.50;23.73;;;;;;;;;;5029772;28;20241;-57
2022/12/02 02:12:23;;;;;;;57.50;22.30;;;;;;;;;;5028991;28;20045;-58
2022/12/02 02:14:50;;;;;;;57.28;24.95;;;;;;;;;;5014653;28;20048;-58
2022/12/02 02:17:16;;;;;;;59.90;23.35;;;;;;;;;;5015572;28;20567;-58
2022/12/02 02:19:43;;;;;;;57.25;23.63;;;;;;;;;;5032879;28;20037;-58
2022/12/02 02:22:17;;;;;;;61.70;25.15;;;;;;;;;;5033861;28;20049;-58
2022/12/02 02:24:43;;;;;;;51.78;21.88;;;;;;;;;;5025618;28;20057;-58
2022/12/02 02:27:09;;;;;;;56.45;23.05;;;;;;;;;;5012782;28;20085;-57
2022/12/02 02:29:35;;;;;;;51.25;21.02;;;;;;;;;;5033964;28;20489;-58
2022/12/02 02:32:01;;;;;;;50.10;21.08;;;;;;;;;;5011483;28;20041;-57
2022/12/02 02:34:27;;;;;;;50.83;22.05;;;;;;;;;;5031338;28;20057;-58
2022/12/02 02:36:53;;;;;;;51.70;21.05;;;;;;;;;;5033032;28;20077;-58
2022/12/02 02:39:21;;;;;;;53.45;21.33;;;;;;;;;;5032184;28;20048;-58
2022/12/02 02:41:47;;;;;;;51.28;21.02;;;;;;;;;;5024042;28;20049;-57
2022/12/02 02:44:13;;;;;;;55.53;22.23;;;;;;;;;;5016025;28;20077;-57
2022/12/02 02:46:40;;;;;;;53.95;21.00;;;;;;;;;;5031487;28;20045;-59
2022/12/02 02:49:06;;;;;;;54.45;21.05;;;;;;;;;;5015493;28;20089;-58
2022/12/02 02:51:32;;;;;;;53.35;21.85;;;;;;;;;;5015017;28;20045;-58
2022/12/02 02:53:58;;;;;;;48.25;20.48;;;;;;;;;;5025422;28;20046;-58
2022/12/02 02:56:24;;;;;;;44.20;19.27;;;;;;;;;;5013849;28;20505;-58
2022/12/02 02:58:50;;;;;;;44.00;19.52;;;;;;;;;;5013294;28;20049;-57
2022/12/02 03:01:18;;;;;;;53.95;18.98;;;;;;;;;;5006473;28;20049;-57
2022/12/02 03:04:00;;;;;;;48.10;19.40;;;;;;;;;;5010981;28;20111;-58
2022/12/02 03:06:27;;;;;;;43.80;18.50;;;;;;;;;;5029975;28;20052;-57
2022/12/02 03:08:54;;;;;;;43.38;18.77;;;;;;;;;;5025862;28;20049;-57
2022/12/02 03:11:20;;;;;;;45.00;18.00;;;;;;;;;;5031944;28;20466;-57
2022/12/02 03:13:47;;;;;;;41.63;17.30;;;;;;;;;;5031861;28;20139;-57
2022/12/02 03:16:15;;;;;;;38.10;16.60;;;;;;;;;;5033054;28;20186;-57
2022/12/02 03:18:42;;;;;;;40.40;18.05;;;;;;;;;;5032955;28;20049;-58
2022/12/02 03:21:08;;;;;;;42.42;18.10;;;;;;;;;;5032469;28;20045;-58
2022/12/02 03:23:35;;;;;;;40.03;15.75;;;;;;;;;;5029981;28;20505;-58
2022/12/02 03:26:01;;;;;;;46.65;18.13;;;;;;;;;;5031251;28;20567;-58
2022/12/02 03:28:28;;;;;;;40.60;15.40;;;;;;;;;;5032797;28;20379;-58
2022/12/02 03:30:54;;;;;;;37.08;17.35;;;;;;;;;;5012925;28;20045;-57
2022/12/02 03:33:20;;;;;;;40.45;17.42;;;;;;;;;;5032559;28;20048;-58
2022/12/02 03:35:46;;;;;;;34.97;17.27;;;;;;;;;;5032642;28;20087;-59
2022/12/02 03:38:12;;;;;;;41.63;17.40;;;;;;;;;;5015214;28;20053;-58
2022/12/02 03:40:38;;;;;;;38.30;15.48;;;;;;;;;;5031223;28;20099;-57
2022/12/02 03:43:04;;;;;;;36.42;16.33;;;;;;;;;;5032168;28;20509;-58
2022/12/02 03:45:31;;;;;;;40.90;15.35;;;;;;;;;;5032396;28;20075;-58
2022/12/02 03:47:57;;;;;;;39.25;16.80;;;;;;;;;;5019909;28;20053;-58
2022/12/02 03:50:23;;;;;;;38.35;16.13;;;;;;;;;;5012887;28;20038;-57
2022/12/02 03:52:49;;;;;;;34.70;14.90;;;;;;;;;;4995613;28;20862;-58
2022/12/02 03:55:15;;;;;;;37.65;15.75;;;;;;;;;;5013761;28;20498;-57
2022/12/02 03:57:41;;;;;;;41.13;15.90;;;;;;;;;;5012744;28;20046;-58
2022/12/02 04:00:09;;;;;;;38.90;15.90;;;;;;;;;;5012271;28;20057;-58
2022/12/02 04:02:35;;;;;;;37.47;15.35;;;;;;;;;;5012842;28;20050;-57
2022/12/02 04:05:01;;;;;;;36.50;14.98;;;;;;;;;;5029267;28;20406;-57
2022/12/02 04:07:27;;;;;;;34.63;12.95;;;;;;;;;;5032241;28;20513;-57
2022/12/02 04:09:53;;;;;;;38.55;14.98;;;;;;;;;;5028365;28;20041;-58
2022/12/02 04:12:19;;;;;;;38.80;14.43;;;;;;;;;;5032235;28;20141;-58
2022/12/02 04:14:45;;;;;;;38.15;15.98;;;;;;;;;;5007818;28;20045;-58
2022/12/02 04:17:11;;;;;;;37.28;14.98;;;;;;;;;;5026020;28;20046;-58
2022/12/02 04:19:37;;;;;;;36.88;15.18;;;;;;;;;;5027764;28;20048;-58
2022/12/02 04:22:03;;;;;;;37.72;16.52;;;;;;;;;;5030509;28;20033;-58
2022/12/02 04:24:29;;;;;;;39.38;15.55;;;;;;;;;;5030193;28;20049;-57
2022/12/02 04:26:55;;;;;;;39.20;16.73;;;;;;;;;;5010941;28;20049;-57
2022/12/02 04:29:21;;;;;;;38.42;15.63;;;;;;;;;;5012583;28;20048;-57
2022/12/02 04:31:47;;;;;;;40.17;15.15;;;;;;;;;;5032208;28;20775;-57
2022/12/02 04:34:13;;;;;;;36.40;14.38;;;;;;;;;;5018555;28;20054;-57
2022/12/02 04:36:39;;;;;;;39.60;16.60;;;;;;;;;;5012453;28;20050;-59
2022/12/02 04:39:05;;;;;;;36.13;14.43;;;;;;;;;;5012094;28;20104;-57
2022/12/02 04:41:31;;;;;;;36.88;15.50;;;;;;;;;;5013719;28;20045;-57
2022/12/02 04:43:57;;;;;;;36.65;15.20;;;;;;;;;;5026054;28;20048;-57
2022/12/02 04:46:23;;;;;;;31.73;14.27;;;;;;;;;;5021104;28;20049;-58
2022/12/02 04:48:49;;;;;;;33.17;13.07;;;;;;;;;;5013787;28;20045;-58
2022/12/02 04:51:15;;;;;;;33.80;13.57;;;;;;;;;;5013313;28;20512;-58
2022/12/02 04:53:41;;;;;;;33.63;12.75;;;;;;;;;;5021232;28;20501;-58
2022/12/02 04:56:07;;;;;;;33.50;14.63;;;;;;;;;;5031884;28;20091;-58
2022/12/02 04:58:33;;;;;;;34.47;15.38;;;;;;;;;;5031283;28;20126;-58
2022/12/02 05:00:59;;;;;;;32.20;14.95;;;;;;;;;;5013551;28;20119;-58
2022/12/02 05:03:25;;;;;;;37.17;13.82;;;;;;;;;;5030828;28;20042;-58
2022/12/02 05:05:51;;;;;;;39.13;15.60;;;;;;;;;;5029008;28;20041;-58
2022/12/02 05:08:17;;;;;;;41.67;15.32;;;;;;;;;;5031460;28;20128;-58
2022/12/02 05:10:43;;;;;;;34.55;15.40;;;;;;;;;;5013132;28;20450;-58
2022/12/02 05:13:09;;;;;;;38.28;15.63;;;;;;;;;;5015353;28;20045;-57
2022/12/02 05:15:35;;;;;;;40.22;16.30;;;;;;;;;;5030586;28;20057;-58
2022/12/02 05:18:01;;;;;;;41.95;15.88;;;;;;;;;;5028193;28;20128;-57
2022/12/02 05:20:27;;;;;;;42.67;16.42;;;;;;;;;;5012010;28;20462;-58
2022/12/02 05:22:53;;;;;;;40.88;16.98;;;;;;;;;;4995534;28;20046;-57
2022/12/02 05:25:19;;;;;;;39.13;16.67;;;;;;;;;;5029746;28;20460;-57
2022/12/02 05:27:45;;;;;;;44.45;17.75;;;;;;;;;;5014382;28;20088;-58
2022/12/02 05:30:12;;;;;;;37.63;16.55;;;;;;;;;;5012060;28;20054;-58
2022/12/02 05:32:38;;;;;;;38.55;16.83;;;;;;;;;;5013119;28;20046;-58
2022/12/02 05:35:04;;;;;;;37.72;16.35;;;;;;;;;;5015195;28;20080;-57
2022/12/02 05:37:30;;;;;;;42.83;18.02;;;;;;;;;;5034341;28;20049;-58
2022/12/02 05:39:58;;;;;;;47.22;19.13;;;;;;;;;;5034363;28;20057;-57
2022/12/02 05:42:24;;;;;;;51.35;19.80;;;;;;;;;;5035091;28;20052;-58
2022/12/02 05:44:50;;;;;;;48.95;19.15;;;;;;;;;;5032856;28;20041;-58
2022/12/02 05:47:17;;;;;;;45.20;16.95;;;;;;;;;;5016378;28;20052;-57
2022/12/02 05:49:43;;;;;;;50.58;19.20;;;;;;;;;;5033300;28;20041;-58
2022/12/02 05:52:18;;;;;;;50.92;19.55;;;;;;;;;;5015475;28;20489;-57
2022/12/02 05:57:24;;;;;;;48.20;17.80;;;;;;;;;;5030039;28;20148;-57
2022/12/02 05:59:50;;;;;;;51.55;19.77;;;;;;;;;;5033179;28;20041;-58
2022/12/02 06:02:23;;;;;;;50.88;20.40;;;;;;;;;;5034720;28;20046;-57
2022/12/02 06:04:49;;;;;;;53.30;18.73;;;;;;;;;;5033998;28;20095;-58
2022/12/02 06:07:16;;;;;;;47.58;20.48;;;;;;;;;;5034936;28;20486;-58
2022/12/02 06:09:42;;;;;;;55.20;20.00;;;;;;;;;;5030579;28;20045;-58
2022/12/02 06:12:16;;;;;;;56.45;20.88;;;;;;;;;;5034329;28;20046;-58
2022/12/02 06:15:01;;;;;;;55.63;21.35;;;;;;;;;;5030384;28;20045;-59
2022/12/02 06:17:27;;;;;;;56.78;20.23;;;;;;;;;;5033168;28;20049;-57
2022/12/02 06:19:54;;;;;;;55.42;20.77;;;;;;;;;;5030299;28;20128;-58
2022/12/02 06:22:23;;;;;;;62.63;21.48;;;;;;;;;;5034025;28;20509;-57
2022/12/02 06:24:49;;;;;;;61.67;22.02;;;;;;;;;;5033324;28;20056;-57
2022/12/02 06:27:17;;;;;;;66.05;22.33;;;;;;;;;;5033863;28;20049;-58
2022/12/02 06:29:56;;;;;;;56.55;21.85;;;;;;;;;;5032955;28;20095;-57
2022/12/02 06:32:23;;;;;;;60.38;21.40;;;;;;;;;;5033883;28;20046;-57
2022/12/02 06:34:50;;;;;;;64.97;22.08;;;;;;;;;;5033018;28;20045;-57
2022/12/02 06:37:23;;;;;;;64.55;22.45;;;;;;;;;;5030939;28;20056;-58
2022/12/02 06:39:54;;;;;;;62.60;22.35;;;;;;;;;;5032054;28;20049;-57
2022/12/02 06:42:40;;;;;;;66.45;22.92;;;;;;;;;;5033792;28;20133;-58
2022/12/02 06:45:07;;;;;;;65.72;21.95;;;;;;;;;;5033480;28;20033;-58
2022/12/02 06:47:36;;;;;;;61.22;20.42;;;;;;;;;;5024269;28;20045;-57
2022/12/02 06:50:02;;;;;;;63.63;22.58;;;;;;;;;;5018994;28;20081;-58
2022/12/02 06:52:28;;;;;;;59.72;20.42;;;;;;;;;;5031190;28;20069;-57
2022/12/02 06:54:55;;;;;;;63.60;22.52;;;;;;;;;;5031822;28;20514;-58
2022/12/02 06:57:21;;;;;;;57.22;20.90;;;;;;;;;;5033520;28;20104;-58
2022/12/02 06:59:48;;;;;;;66.47;22.95;;;;;;;;;;5031293;28;20485;-58
2022/12/02 07:02:29;;;;;;;65.05;22.60;;;;;;;;;;5032271;28;20417;-61
2022/12/02 07:04:56;;;;;;;66.75;22.35;;;;;;;;;;5033006;28;20077;-57
2022/12/02 07:07:24;;;;;;;58.88;21.60;;;;;;;;;;5033284;28;20092;-58
2022/12/02 07:09:56;;;;;;;61.22;22.15;;;;;;;;;;5030543;28;20045;-58
2022/12/02 07:12:30;;;;;;;58.85;21.58;;;;;;;;;;5033049;28;20052;-57
2022/12/02 07:14:57;;;;;;;70.05;23.45;;;;;;;;;;5032254;28;20145;-57
2022/12/02 07:17:26;;;;;;;61.55;21.30;;;;;;;;;;5033142;28;20049;-58
2022/12/02 07:19:55;;;;;;;62.08;20.55;;;;;;;;;;5029622;28;20048;-57
2022/12/02 07:22:23;;;;;;;63.28;22.27;;;;;;;;;;5026357;28;20458;-57
2022/12/02 07:24:57;;;;;;;69.47;23.38;;;;;;;;;;5030512;28;20037;-57
2022/12/02 07:27:29;;;;;;;66.72;21.00;;;;;;;;;;5033080;28;20056;-57
2022/12/02 07:29:55;;;;;;;68.55;23.17;;;;;;;;;;5031638;28;20046;-57
2022/12/02 07:32:21;;;;;;;74.22;25.38;;;;;;;;;;5031848;28;20053;-57
2022/12/02 07:34:47;;;;;;;60.00;20.70;;;;;;;;;;5031417;28;20484;-57
2022/12/02 07:37:13;;;;;;;66.28;22.25;;;;;;;;;;5032450;28;20132;-57
2022/12/02 07:39:39;;;;;;;65.55;23.67;;;;;;;;;;5030952;28;20037;-58
2022/12/02 07:42:05;;;;;;;77.22;23.88;;;;;;;;;;5032710;28;20052;-57
2022/12/02 07:44:32;;;;;;;66.15;24.92;;;;;;;;;;5027977;28;20049;-58
2022/12/02 07:46:58;;;;;;;79.68;25.83;;;;;;;;;;5030592;28;20490;-57
2022/12/02 07:49:24;;;;;;;66.25;23.73;;;;;;;;;;5032526;28;20580;-57
2022/12/02 07:51:51;;;;;;;63.58;21.67;;;;;;;;;;5031499;28;20090;-57
2022/12/02 07:54:17;;;;;;;70.07;23.98;;;;;;;;;;5019510;28;20049;-57
2022/12/02 07:56:43;;;;;;;70.25;24.27;;;;;;;;;;5030197;28;20057;-58
2022/12/02 07:59:09;;;;;;;67.88;23.92;;;;;;;;;;5031738;28;20052;-58
2022/12/02 08:01:35;;;;;;;76.38;24.90;;;;;;;;;;5032527;28;20056;-57
2022/12/02 08:04:01;;;;;;;69.80;22.25;;;;;;;;;;5029933;28;20045;-57
2022/12/02 08:06:27;;;;;;;75.57;24.38;;;;;;;;;;5012252;28;20052;-57
2022/12/02 08:08:53;;;;;;;60.15;23.55;;;;;;;;;;5012725;28;20053;-57
2022/12/02 08:11:19;;;;;;;75.45;23.98;;;;;;;;;;5029849;28;20068;-57
2022/12/02 08:13:45;;;;;;;70.75;23.02;;;;;;;;;;5028014;28;20433;-57
2022/12/02 08:16:11;;;;;;;77.28;24.95;;;;;;;;;;5029725;28;20518;-58
2022/12/02 08:18:37;;;;;;;73.43;24.15;;;;;;;;;;5031897;28;21384;-58
2022/12/02 08:21:03;;;;;;;72.47;25.02;;;;;;;;;;5025348;28;20045;-58
2022/12/02 08:23:29;;;;;;;71.47;24.85;;;;;;;;;;5027428;28;20045;-57
2022/12/02 08:25:55;;;;;;;75.47;24.42;;;;;;;;;;5030868;28;20065;-57
2022/12/02 08:28:21;;;;;;;74.22;24.50;;;;;;;;;;5030557;28;20057;-57
2022/12/02 08:30:48;;;;;;;70.15;23.00;;;;;;;;;;5031397;28;20073;-57
2022/12/02 08:33:14;;;;;;;68.10;23.15;;;;;;;;;;5030943;28;20069;-58
2022/12/02 08:35:40;;;;;;;68.20;25.15;;;;;;;;;;5031522;28;20398;-58
2022/12/02 08:38:06;;;;;;;75.25;26.88;;;;;;;;;;5029068;28;20041;-57
2022/12/02 08:40:33;;;;;;;74.60;26.42;;;;;;;;;;5031436;28;20041;-58
2022/12/02 08:43:00;;;;;;;68.32;24.58;;;;;;;;;;5029061;28;20057;-58
2022/12/02 08:45:26;;;;;;;66.97;23.73;;;;;;;;;;5030006;28;20433;-57
2022/12/02 08:47:52;;;;;;;72.13;24.70;;;;;;;;;;5030316;28;20119;-58
2022/12/02 08:50:18;;;;;;;81.50;27.08;;;;;;;;;;5027027;28;20045;-58
2022/12/02 08:52:45;;;;;;;73.13;23.20;;;;;;;;;;5028982;28;20088;-57
2022/12/02 08:55:11;;;;;;;63.67;23.20;;;;;;;;;;5088938;22;20049;-57
2022/12/02 08:57:37;;;;;;;69.68;24.65;;;;;;;;;;5051600;28;20049;-57
2022/12/02 09:00:07;;;;;;;61.22;20.88;;;;;;;;;;5049885;28;20493;-57
2022/12/02 09:02:33;;;;;;;63.67;22.40;;;;;;;;;;5045166;28;20118;-57
2022/12/02 09:04:59;;;;;;;63.63;22.30;;;;;;;;;;5019216;28;20756;-57
2022/12/02 09:07:25;;;;;;;60.75;21.95;;;;;;;;;;5033055;28;20164;-56
2022/12/02 09:09:51;;;;;;;62.13;22.02;;;;;;;;;;5055143;28;20469;-57
2022/12/02 09:12:17;;;;;;;58.03;21.48;;;;;;;;;;5053697;28;20414;-57
2022/12/02 09:14:43;;;;;;;58.10;19.95;;;;;;;;;;5037248;28;20132;-57
2022/12/02 09:17:09;;;;;;;50.90;18.58;;;;;;;;;;5055296;28;20092;-57
2022/12/02 09:19:35;;;;;;;50.72;19.20;;;;;;;;;;5053561;28;20076;-57
2022/12/02 09:22:01;;;;;;;59.17;23.48;;;;;;;;;;5053338;28;20037;-57
2022/12/02 09:24:27;;;;;;;53.63;20.35;;;;;;;;;;5055029;28;20052;-57
2022/12/02 09:26:53;;;;;;;58.05;20.85;;;;;;;;;;5053162;28;20049;-57
2022/12/02 09:29:19;;;;;;;61.83;19.42;;;;;;;;;;5052988;28;20037;-58
2022/12/02 09:31:45;;;;;;;60.38;22.27;;;;;;;;;;5052785;28;20052;-57
2022/12/02 09:34:11;;;;;;;57.83;21.23;;;;;;;;;;5049526;28;20120;-59
2022/12/02 09:36:38;;;;;;;71.88;23.70;;;;;;;;;;5049588;28;20124;-58
2022/12/02 09:39:04;;;;;;;65.25;21.23;;;;;;;;;;5017312;28;20045;-57
2022/12/02 09:41:30;;;;;;;63.75;23.38;;;;;;;;;;5045046;28;20049;-57
2022/12/02 09:43:56;;;;;;;65.13;21.15;;;;;;;;;;5053092;28;20143;-58
2022/12/02 09:46:22;;;;;;;55.83;19.75;;;;;;;;;;5033320;28;20410;-58
2022/12/02 09:48:48;;;;;;;60.10;22.38;;;;;;;;;;5051915;28;20076;-57
2022/12/02 09:51:14;;;;;;;64.10;22.67;;;;;;;;;;5036842;28;20523;-57
2022/12/02 09:53:41;;;;;;;58.30;20.13;;;;;;;;;;5052470;28;20098;-58
2022/12/02 09:56:25;;;;;;;62.35;22.25;;;;;;;;;;5036012;28;20049;-57
2022/12/02 09:58:54;;;;;;;65.55;22.00;;;;;;;;;;5036429;28;20084;-57
2022/12/02 10:01:20;;;;;;;55.45;21.20;;;;;;;;;;5048777;28;20040;-58
2022/12/02 10:03:48;;;;;;;64.50;22.20;;;;;;;;;;5049099;28;20128;-57
2022/12/02 10:06:19;;;;;;;61.03;21.60;;;;;;;;;;5050858;28;20091;-57
2022/12/02 10:08:46;;;;;;;61.72;22.70;;;;;;;;;;5054457;28;20091;-57
2022/12/02 10:11:20;;;;;;;55.08;19.50;;;;;;;;;;5052926;28;20041;-58
2022/12/02 10:13:46;;;;;;;60.28;20.63;;;;;;;;;;5033817;28;20099;-58
2022/12/02 10:16:12;;;;;;;51.83;19.20;;;;;;;;;;5052906;28;20405;-58
2022/12/02 10:18:42;;;;;;;48.15;18.10;;;;;;;;;;5053617;28;20079;-57
2022/12/02 10:21:08;;;;;;;56.28;21.80;;;;;;;;;;5054217;28;20052;-57
2022/12/02 10:23:51;;;;;;;55.13;20.75;;;;;;;;;;5054287;28;20052;-58
2022/12/02 10:26:17;;;;;;;56.35;18.02;;;;;;;;;;5053372;28;20094;-57
2022/12/02 10:28:57;;;;;;;58.95;18.77;;;;;;;;;;5053869;28;20532;-57
2022/12/02 10:31:23;;;;;;;53.33;18.05;;;;;;;;;;5052476;28;20496;-57
2022/12/02 10:34:00;;;;;;;54.50;19.00;;;;;;;;;;5053982;28;20045;-57
2022/12/02 10:36:31;;;;;;;53.38;17.70;;;;;;;;;;5052715;28;20060;-58
2022/12/02 10:39:14;;;;;;;;;;;3.10;99.90;;;;;;5048950;28;20050;-57
2022/12/02 10:41:40;;;;;;;41.20;13.43;;;;;;;;;;5043276;28;20365;-57
2022/12/02 10:44:12;;;;;;;43.65;15.95;;;;;;;;;;5053669;28;20060;-58
2022/12/02 10:46:39;;;;;;;51.28;17.58;;;;;;;;;;5035495;28;20401;-59
2022/12/02 10:49:20;;;;;;;44.60;16.08;;;;;;;;;;5034138;28;20044;-57
2022/12/02 10:51:46;;;;;;;49.67;16.15;;;;;;;;;;5052791;28;20057;-58
2022/12/02 10:54:18;;;;;;;51.58;17.13;;;;;;;;;;5026560;28;20472;-57
2022/12/02 10:56:45;;;;;;;51.17;17.80;;;;;;;;;;5033439;28;20045;-57
2022/12/02 10:59:13;;;;;;;46.45;16.88;;;;;;;;;;5048013;28;20044;-57
2022/12/02 11:01:39;;;;;;;46.42;17.63;;;;;;;;;;5052992;28;20064;-60
2022/12/02 11:04:08;;;;;;;41.33;17.08;;;;;;;;;;5051030;28;20053;-58
2022/12/02 11:06:34;;;;;;;47.92;16.75;;;;;;;;;;5053230;28;20045;-57
2022/12/02 11:09:00;;;;;;;42.45;16.48;;;;;;;;;;5052008;28;20420;-57
2022/12/02 11:11:26;;;;;;;38.95;14.43;;;;;;;;;;5053164;28;20124;-58
2022/12/02 11:14:00;;;;;;;43.60;16.50;;;;;;;;;;5033066;28;20148;-58
2022/12/02 11:16:27;;;;;;;52.00;15.45;;;;;;;;;;5048777;28;20060;-58
2022/12/02 11:19:03;;;;;;;49.53;17.10;;;;;;;;;;5050791;28;20049;-58
2022/12/02 11:21:29;;;;;;;51.03;18.58;;;;;;;;;;5053161;28;20045;-58
2022/12/02 11:24:22;;;;;;;38.17;14.60;;;3.40;99.90;;;;;;5052781;28;20048;-57
2022/12/02 11:27:03;;;;;;;49.72;17.60;;;;;;;;;;5052356;28;20040;-58
2022/12/02 11:29:33;;;;;;;47.25;17.10;;;;;;;;;;5038049;28;20053;-57
2022/12/02 11:32:16;;;;;;;44.30;15.60;;;;;;;;;;5022526;28;20077;-57
2022/12/02 11:34:47;;;;;;;48.10;18.80;;;;;;;;;;5034062;28;20052;-58
2022/12/02 11:37:37;;;;;;;44.10;15.80;;;;;;;;;;5052706;28;20133;-57
2022/12/02 11:40:06;;;;;;;47.38;18.15;;;;;;;;;;5043556;28;20041;-57
2022/12/02 11:42:33;;;;;;;50.33;17.45;;;;;;;;;;5033217;28;20481;-57
2022/12/02 11:45:14;;;;;;;52.10;18.73;;;;;;;;;;5052330;28;20041;-57
2022/12/02 11:47:44;;;;;;;46.58;17.88;;;;;;;;;;5050556;28;20044;-57
2022/12/02 11:50:14;;;;;;;49.13;17.30;;;;;;;;;;5049456;28;20041;-58
2022/12/02 11:52:41;;;;;;;50.63;19.42;;;;;;;;;;5043490;28;20045;-58
2022/12/02 11:55:22;;;;;;;51.55;18.75;;;;;;;;;;5037786;28;20099;-57
2022/12/02 11:57:58;;;;;;;54.22;18.25;;;;;;;;;;5021019;28;20497;-57
2022/12/02 12:00:27;;;;;;;50.22;20.58;;;;;;;;;;5047129;28;20048;-57
2022/12/02 12:03:11;;;;;;;53.63;20.58;;;;;;;;;;5051812;28;20077;-61
2022/12/02 12:05:37;;;;;;;49.90;19.45;;;;;;;;;;5052458;28;20044;-58
2022/12/02 12:08:03;;;;;;;50.70;20.90;;;;;;;;;;5047993;28;20083;-58
2022/12/02 12:10:29;;;;;;;56.75;22.00;;;;;;;;;;5051776;28;20041;-58
2022/12/02 12:13:14;;;;;;;49.10;20.10;;;;;;;;;;5050819;28;20052;-58
2022/12/02 12:15:50;;;;;;;54.65;19.48;;;;;;;;;;5050099;28;20045;-58
2022/12/02 12:18:36;;;;;;;52.55;21.23;;;;;;;;;;5051089;28;20083;-58
2022/12/02 12:21:04;;;;;;;56.92;21.73;;;;;;;;;;5049001;28;20043;-58
2022/12/02 12:23:35;;;;;;;63.22;24.02;;;;;;;;;;5044101;28;20057;-57
2022/12/02 12:26:02;;;;;;;;;;;3.30;99.90;;;;;;5024246;28;20051;-57
2022/12/02 12:28:32;;;;;;;57.15;20.13;;;;;;;;;;5041208;28;19920;-57
2022/12/02 12:33:41;;;;;;;64.65;22.95;;;;;;;;;;4953741;23;20573;-57
2022/12/02 12:36:07;;;;;;;55.53;20.88;;;;;;;;;;4998168;28;20050;-57
2022/12/02 12:38:33;;;;;;;58.88;23.15;;;;;;;;;;5036291;22;20180;-58
2022/12/02 12:40:59;;;;;;;57.17;22.95;;;;;;;;;;5023896;28;20048;-58
2022/12/02 12:43:25;;;;;;;59.15;23.00;;;;;;;;;;5030062;28;20045;-58
2022/12/02 12:45:51;;;;;;;59.33;20.98;;;;;;;;;;5025811;28;20104;-57
2022/12/02 12:48:18;;;;;;;59.00;22.08;;;;;;;;;;5022033;28;20398;-57
2022/12/02 12:50:44;;;;;;;58.55;24.40;;;;;;;;;;5026207;28;20038;-57
2022/12/02 12:53:10;;;;;;;58.22;22.65;;;;;;;;;;5042703;22;20058;-58
2022/12/02 12:55:36;;;;;;;61.38;21.05;;;;;;;;;;4646849;22;20104;-57
2022/12/02 12:58:02;;;;;;;57.50;21.98;;;;;;;;;;5012123;28;20053;-58
2022/12/02 13:00:28;;;;;;;56.72;24.35;;;;;;;;;;5036455;28;20517;-57
2022/12/02 13:02:54;;;;;;;52.40;21.38;;;;;;;;;;5034748;28;20049;-57
2022/12/02 13:05:20;;;;;;;50.88;19.42;;;;;;;;;;5035879;28;20049;-57
2022/12/02 13:07:46;;;;;;;52.47;23.15;;;;;;;;;;5036900;28;20045;-58
2022/12/02 13:10:12;;;;;;;57.55;23.35;;;;;;;;;;5036855;28;20081;-57
2022/12/02 13:12:38;;;;;;;58.80;21.95;;;;;;;;;;5020663;28;20056;-58
2022/12/02 13:15:04;;;;;;;55.25;23.00;;;;;;;;;;5020929;28;20072;-57
2022/12/02 13:17:30;;;;;;;58.05;24.02;;;;;;;;;;5036553;28;20049;-57
2022/12/02 13:19:56;;;;;;;56.15;23.63;;;;;;;;;;5034013;28;20367;-57
2022/12/02 13:22:26;;;;;;;54.88;20.52;;;;;;;;;;5038263;28;20052;-58
2022/12/02 13:24:52;;;;;;;59.72;24.33;;;;;;;;;;5035510;28;20053;-58
2022/12/02 13:27:18;;;;;;;57.40;24.73;;;;;;;;;;5037254;28;20486;-58
2022/12/02 13:29:44;;;;;;;57.72;23.52;;;;;;;;;;5020123;28;20041;-57
2022/12/02 13:32:13;;;;;;;56.17;25.38;;;;;;;;;;5037938;28;20084;-57
2022/12/02 13:34:39;;;;;;;53.13;23.27;;;;;;;;;;5036012;28;20436;-58
2022/12/02 13:37:05;;;;;;;56.42;26.65;;;;;;;;;;5037915;28;20056;-58
2022/12/02 13:39:31;;;;;;;58.67;25.55;;;;;;;;;;5019364;28;20452;-58
2022/12/02 13:41:57;;;;;;;60.20;24.00;;;;;;;;;;5032973;28;20042;-57
2022/12/02 13:44:23;;;;;;;59.33;25.77;;;;;;;;;;5015707;28;20127;-57
2022/12/02 13:46:49;;;;;;;60.42;26.02;;;;;;;;;;5035624;28;20107;-57
2022/12/02 13:49:16;;;;;;;55.88;25.48;;;;;;;;;;5036800;28;20386;-58
2022/12/02 13:51:42;;;;;;;46.05;20.45;;;;;;;;;;5019685;28;20087;-58
2022/12/02 13:54:08;;;;;;;61.65;25.10;;;;;;;;;;5030831;28;20459;-58
2022/12/02 13:56:36;;;;;;;53.53;22.45;;;;;;;;;;5034428;28;20398;-57
2022/12/02 13:59:02;;;;;;;57.53;24.33;;;;;;;;;;5030558;28;20045;-57
2022/12/02 14:01:28;;;;;;;43.88;19.38;;;;;;;;;;5017073;28;20402;-57
2022/12/02 14:03:54;;;;;;;53.22;23.65;;;;;;;;;;5015211;28;20049;-57
2022/12/02 14:06:20;;;;;;;53.35;24.02;;;;;;;;;;5031061;28;20045;-57
2022/12/02 14:08:46;;;;;;;58.85;25.92;;;;;;;;;;5032689;28;20049;-58
2022/12/02 14:11:12;;;;;;;56.17;23.55;;;;;;;;;;5016642;28;20049;-58
2022/12/02 14:13:38;;;;;;;51.33;22.58;;;;;;;;;;5016481;28;20203;-57
2022/12/02 14:16:04;;;;;;;58.20;22.83;;;;;;;;;;5032716;28;20054;-58
2022/12/02 14:18:33;;;;;;;65.28;28.23;;;;;;;;;;5034254;28;20757;-57
2022/12/02 14:21:02;;;;;;;59.22;25.98;;;;;;;;;;5022071;28;20137;-57
2022/12/02 14:23:28;;;;;;;58.25;25.27;;;;;;;;;;5033390;28;20114;-57
2022/12/02 14:25:54;;;;;;;61.00;27.88;;;;;;;;;;5007632;28;20068;-57